createdAt,value
2018-06-22T00:01:18.565Z,59.44
2018-06-22T00:03:47.728Z,59.44
2018-06-22T00:06:16.900Z,59.68
2018-06-22T00:08:46.071Z,60.44
2018-06-22T00:11:15.219Z,60.14
2018-06-22T00:13:44.379Z,60.44
2018-06-22T00:16:13.544Z,60.39
2018-06-22T00:18:42.703Z,61.09
2018-06-22T00:21:11.865Z,60.54
2018-06-22T00:23:41.096Z,61.09
2018-06-22T00:26:10.262Z,61.75
2018-06-22T00:28:39.419Z,61.74
2018-06-22T00:31:08.588Z,61.83
2018-06-22T00:33:37.759Z,61.93
2018-06-22T00:36:06.909Z,62.32
2018-06-22T00:38:36.064Z,62.51
2018-06-22T00:41:05.240Z,63.36
2018-06-22T00:43:34.413Z,63.78
2018-06-22T00:46:03.594Z,64.02
2018-06-22T00:48:32.747Z,63.49
2018-06-22T00:51:01.917Z,63.64
2018-06-22T00:53:48.115Z,64.54
2018-06-22T00:56:17.272Z,64.88
2018-06-22T00:58:46.445Z,65.13
2018-06-22T01:01:15.596Z,65.59
2018-06-22T01:03:44.787Z,65.67
2018-06-22T01:06:13.940Z,65.66
2018-06-22T01:08:43.203Z,65.84
2018-06-22T01:11:12.347Z,66.10
2018-06-22T01:13:41.509Z,66.73
2018-06-22T01:16:10.659Z,65.88
2018-06-22T01:18:39.915Z,65.74
2018-06-22T01:21:09.080Z,65.69
2018-06-22T01:23:38.247Z,65.81
2018-06-22T01:26:07.423Z,66.15
2018-06-22T01:28:36.599Z,66.45
2018-06-22T01:31:05.750Z,66.32
2018-06-22T01:33:34.921Z,65.53
2018-06-22T01:36:04.089Z,65.75
2018-06-22T01:38:33.271Z,66.29
2018-06-22T01:41:02.430Z,66.56
2018-06-22T01:43:31.578Z,66.60
2018-06-22T01:46:00.737Z,66.98
2018-06-22T01:48:29.882Z,66.84
2018-06-22T01:50:59.038Z,67.56
2018-06-22T01:53:28.171Z,67.92
2018-06-22T01:55:57.336Z,68.05
2018-06-22T01:58:26.501Z,68.92
2018-06-22T02:00:55.655Z,68.43
2018-06-22T02:03:24.792Z,68.72
2018-06-22T02:05:54.002Z,68.84
2018-06-22T02:08:23.115Z,68.68
2018-06-22T02:10:52.275Z,68.62
2018-06-22T02:13:21.423Z,68.77
2018-06-22T02:15:50.573Z,68.77
2018-06-22T02:18:19.721Z,68.56
2018-06-22T02:20:48.882Z,68.75
2018-06-22T02:23:18.036Z,69.41
2018-06-22T02:25:47.193Z,69.23
2018-06-22T02:28:16.355Z,69.27
2018-06-22T02:30:45.512Z,69.89
2018-06-22T02:33:14.667Z,70.04
2018-06-22T02:35:43.807Z,69.91
2018-06-22T02:38:12.964Z,70.61
2018-06-22T02:40:42.124Z,70.80
2018-06-22T02:43:11.282Z,70.14
2018-06-22T02:45:40.431Z,70.44
2018-06-22T02:48:09.579Z,71.20
2018-06-22T02:50:38.774Z,71.43
2018-06-22T02:53:08.034Z,71.15
2018-06-22T02:55:37.180Z,71.50
2018-06-22T02:58:06.348Z,71.60
2018-06-22T03:00:35.503Z,70.65
2018-06-22T03:03:04.660Z,71.12
2018-06-22T03:05:33.821Z,71.19
2018-06-22T03:08:02.975Z,71.11
2018-06-22T03:10:32.134Z,70.90
2018-06-22T03:13:01.364Z,70.63
2018-06-22T03:15:30.518Z,71.12
2018-06-22T03:17:59.675Z,71.20
2018-06-22T03:20:28.877Z,71.20
2018-06-22T03:22:58.036Z,70.97
2018-06-22T03:25:27.197Z,71.42
2018-06-22T03:27:56.373Z,72.18
2018-06-22T03:30:25.550Z,71.18
2018-06-22T03:32:54.692Z,71.84
2018-06-22T03:35:23.855Z,71.43
2018-06-22T03:37:53.011Z,71.85
2018-06-22T03:40:22.190Z,71.17
2018-06-22T03:42:51.340Z,71.06
2018-06-22T03:45:20.495Z,70.89
2018-06-22T03:47:49.631Z,71.84
2018-06-22T03:50:18.802Z,72.71
2018-06-22T03:52:47.947Z,72.46
2018-06-22T03:55:17.111Z,72.55
2018-06-22T03:57:46.252Z,73.05
2018-06-22T04:00:15.411Z,73.32
2018-06-22T04:02:44.564Z,73.34
2018-06-22T04:05:13.721Z,73.70
2018-06-22T04:07:42.875Z,73.12
2018-06-22T04:10:12.061Z,73.75
2018-06-22T04:12:41.220Z,73.71
2018-06-22T04:15:10.359Z,73.82
2018-06-22T04:17:44.653Z,73.52
2018-06-22T04:20:13.799Z,73.63
2018-06-22T04:22:42.969Z,73.44
2018-06-22T04:25:12.122Z,73.86
2018-06-22T04:27:41.288Z,73.60
2018-06-22T04:30:10.440Z,73.89
2018-06-22T04:32:39.599Z,73.98
2018-06-22T04:35:08.761Z,74.91
2018-06-22T04:37:38.295Z,74.39
2018-06-22T04:40:07.452Z,73.80
2018-06-22T04:42:36.646Z,73.66
2018-06-22T04:45:05.972Z,73.68
2018-06-22T04:47:35.222Z,73.95
2018-06-22T04:50:04.367Z,73.58
2018-06-22T04:52:33.529Z,72.96
2018-06-22T04:55:02.676Z,72.88
2018-06-22T04:57:31.835Z,72.20
2018-06-22T05:00:01.008Z,71.78
2018-06-22T05:02:30.257Z,71.37
2018-06-22T05:04:59.449Z,70.89
2018-06-22T05:07:28.611Z,70.65
2018-06-22T05:09:57.773Z,71.17
2018-06-22T05:12:26.916Z,70.25
2018-06-22T05:14:56.067Z,69.47
2018-06-22T05:17:25.225Z,69.19
2018-06-22T05:19:54.367Z,69.57
2018-06-22T05:22:23.533Z,69.40
2018-06-22T05:24:52.772Z,69.45
2018-06-22T05:27:21.919Z,68.85
2018-06-22T05:29:51.079Z,69.25
2018-06-22T05:32:20.284Z,68.69
2018-06-22T05:34:49.450Z,68.54
2018-06-22T05:37:18.608Z,69.16
2018-06-22T05:39:47.850Z,68.70
2018-06-22T05:42:17.001Z,68.49
2018-06-22T05:44:46.168Z,67.58
2018-06-22T05:47:15.324Z,67.87
2018-06-22T05:49:44.480Z,67.58
2018-06-22T05:52:13.648Z,67.69
2018-06-22T05:54:42.827Z,67.51
2018-06-22T05:57:11.981Z,66.58
2018-06-22T05:59:41.175Z,66.78
2018-06-22T06:02:10.336Z,66.97
2018-06-22T06:04:39.504Z,66.58
2018-06-22T06:07:08.655Z,66.66
2018-06-22T06:09:37.832Z,67.12
2018-06-22T06:12:06.983Z,66.77
2018-06-22T06:14:36.144Z,66.58
2018-06-22T06:17:05.300Z,65.95
2018-06-22T06:19:34.460Z,66.42
2018-06-22T06:22:03.613Z,66.00
2018-06-22T06:24:32.776Z,64.95
2018-06-22T06:27:01.940Z,65.21
2018-06-22T06:29:31.120Z,66.12
2018-06-22T06:32:00.279Z,65.94
2018-06-22T06:34:29.447Z,65.48
2018-06-22T06:36:58.604Z,65.16
2018-06-22T06:39:27.909Z,64.77
2018-06-22T06:41:57.099Z,65.04
2018-06-22T06:44:26.224Z,65.60
2018-06-22T06:46:55.392Z,65.38
2018-06-22T06:49:24.544Z,64.08
2018-06-22T06:51:53.731Z,63.64
2018-06-22T06:54:22.892Z,63.10
2018-06-22T06:56:52.096Z,61.65
2018-06-22T06:59:21.226Z,61.55
2018-06-22T07:01:50.391Z,62.39
2018-06-22T07:04:19.563Z,62.72
2018-06-22T07:06:48.720Z,61.22
2018-06-22T07:09:17.892Z,60.87
2018-06-22T07:11:47.062Z,61.91
2018-06-22T07:14:16.231Z,61.98
2018-06-22T07:16:45.388Z,62.03
2018-06-22T07:19:14.554Z,61.98
2018-06-22T07:21:43.725Z,62.81
2018-06-22T07:24:12.920Z,62.19
2018-06-22T07:26:42.084Z,61.84
2018-06-22T07:29:11.256Z,61.66
2018-06-22T07:31:40.416Z,61.85
2018-06-22T07:34:09.589Z,61.71
2018-06-22T07:36:38.769Z,60.83
2018-06-22T07:39:10.779Z,62.22
2018-06-22T07:41:40.101Z,62.51
2018-06-22T07:44:09.656Z,62.99
2018-06-22T07:46:38.809Z,62.55
2018-06-22T07:49:07.975Z,62.52
2018-06-22T07:51:37.119Z,62.63
2018-06-22T07:54:06.324Z,62.08
2018-06-22T07:56:35.483Z,63.43
2018-06-22T07:59:04.690Z,63.37
2018-06-22T08:01:33.845Z,63.62
2018-06-22T08:04:03.025Z,64.36
2018-06-22T08:06:32.356Z,63.90
2018-06-22T08:09:01.512Z,63.51
2018-06-22T08:11:30.685Z,64.15
2018-06-22T08:13:59.843Z,63.09
2018-06-22T08:16:29.015Z,62.14
2018-06-22T08:18:58.189Z,61.63
2018-06-22T08:21:27.380Z,62.04
2018-06-22T08:23:56.536Z,62.42
2018-06-22T08:26:25.692Z,61.77
2018-06-22T08:28:54.865Z,62.03
2018-06-22T08:31:24.015Z,62.33
2018-06-22T08:33:53.197Z,62.49
2018-06-22T08:36:22.345Z,60.29
2018-06-22T08:38:51.495Z,61.34
2018-06-22T08:41:20.660Z,61.57
2018-06-22T08:43:49.829Z,61.86
2018-06-22T08:46:19.004Z,60.79
2018-06-22T08:48:48.409Z,60.36
2018-06-22T08:51:17.567Z,59.73
2018-06-22T08:53:46.715Z,61.31
2018-06-22T08:56:15.881Z,60.98
2018-06-22T08:58:45.025Z,61.90
2018-06-22T09:01:15.049Z,62.51
2018-06-22T09:03:43.341Z,62.23
2018-06-22T09:06:12.500Z,61.46
2018-06-22T09:08:41.653Z,59.79
2018-06-22T09:11:10.813Z,60.32
2018-06-22T09:13:39.964Z,59.75
2018-06-22T09:16:09.134Z,59.66
2018-06-22T09:18:39.800Z,59.92
2018-06-22T09:21:08.995Z,59.32
2018-06-22T09:23:38.146Z,59.20
2018-06-22T09:26:07.324Z,57.56
2018-06-22T09:28:36.494Z,57.45
2018-06-22T09:31:05.647Z,57.12
2018-06-22T09:33:34.821Z,57.96
2018-06-22T09:36:03.971Z,57.26
2018-06-22T09:38:33.128Z,56.57
2018-06-22T09:41:02.287Z,57.90
2018-06-22T09:43:31.443Z,58.25
2018-06-22T09:46:00.619Z,56.72
2018-06-22T09:48:29.847Z,56.44
2018-06-22T09:50:58.937Z,55.34
2018-06-22T09:53:28.081Z,56.18
2018-06-22T09:55:57.245Z,55.18
2018-06-22T09:58:26.397Z,56.66
2018-06-22T10:00:55.551Z,56.51
2018-06-22T10:03:25.516Z,54.27
2018-06-22T10:05:54.703Z,54.42
2018-06-22T10:08:23.838Z,54.92
2018-06-22T10:10:53.027Z,54.94
2018-06-22T10:13:22.176Z,54.94
2018-06-22T10:15:51.327Z,55.92
2018-06-22T10:18:20.501Z,57.71
2018-06-22T10:20:49.736Z,58.49
2018-06-22T10:23:18.868Z,58.84
2018-06-22T10:25:48.041Z,59.31
2018-06-22T10:28:17.367Z,58.24
2018-06-22T10:30:46.559Z,58.38
2018-06-22T10:33:15.712Z,57.69
2018-06-22T10:35:44.863Z,56.48
2018-06-22T10:38:14.030Z,56.70
2018-06-22T10:40:43.203Z,56.12
2018-06-22T10:43:12.356Z,56.53
2018-06-22T10:45:41.548Z,55.94
2018-06-22T10:48:10.689Z,56.31
2018-06-22T10:50:39.841Z,57.54
2018-06-22T10:53:08.995Z,55.42
2018-06-22T10:55:38.173Z,54.44
2018-06-22T10:58:07.352Z,54.15
2018-06-22T11:00:36.512Z,54.75
2018-06-22T11:03:05.743Z,54.79
2018-06-22T11:05:34.909Z,55.82
2018-06-22T11:08:04.061Z,57.01
2018-06-22T11:10:33.222Z,57.55
2018-06-22T11:13:02.367Z,57.20
2018-06-22T11:15:31.528Z,57.92
2018-06-22T11:18:00.869Z,58.83
2018-06-22T11:20:30.016Z,56.77
2018-06-22T11:22:59.171Z,56.25
2018-06-22T11:25:28.340Z,55.12
2018-06-22T11:27:57.497Z,54.62
2018-06-22T11:30:26.662Z,52.38
2018-06-22T11:32:55.888Z,49.96
2018-06-22T11:35:25.085Z,51.91
2018-06-22T11:37:54.240Z,52.14
2018-06-22T11:40:23.505Z,49.71
2018-06-22T11:42:52.665Z,49.54
2018-06-22T11:45:21.831Z,52.28
2018-06-22T11:47:50.975Z,52.71
2018-06-22T11:50:20.133Z,51.44
2018-06-22T11:52:49.288Z,50.68
2018-06-22T11:55:18.458Z,48.79
2018-06-22T11:57:47.618Z,50.70
2018-06-22T12:00:16.771Z,51.64
2018-06-22T12:02:45.921Z,52.25
2018-06-22T12:05:15.073Z,49.92
2018-06-22T12:07:44.228Z,50.58
2018-06-22T12:10:13.405Z,50.81
2018-06-22T12:12:42.543Z,53.13
2018-06-22T12:15:11.697Z,53.00
2018-06-22T12:17:40.853Z,51.89
2018-06-22T12:20:10.000Z,54.28
2018-06-22T12:22:39.165Z,52.55
2018-06-22T12:25:08.322Z,53.88
2018-06-22T12:27:37.490Z,52.58
2018-06-22T12:30:06.682Z,50.09
2018-06-22T12:32:35.825Z,49.77
2018-06-22T12:35:04.981Z,49.92
2018-06-22T12:37:34.153Z,49.60
2018-06-22T12:40:03.323Z,51.36
2018-06-22T12:42:32.476Z,50.08
2018-06-22T12:45:01.653Z,50.29
2018-06-22T12:47:31.052Z,52.89
2018-06-22T12:50:00.334Z,53.18
2018-06-22T12:52:29.498Z,54.82
2018-06-22T12:54:58.647Z,54.75
2018-06-22T12:57:27.834Z,55.81
2018-06-22T12:59:56.989Z,56.05
2018-06-22T13:02:26.132Z,54.25
2018-06-22T13:04:55.304Z,55.64
2018-06-22T13:07:24.471Z,55.02
2018-06-22T13:09:53.646Z,55.82
2018-06-22T13:12:22.799Z,55.31
2018-06-22T13:14:52.024Z,54.96
2018-06-22T13:17:21.181Z,50.78
2018-06-22T13:19:50.349Z,49.19
2018-06-22T13:22:19.502Z,47.96
2018-06-22T13:24:48.669Z,50.27
2018-06-22T13:27:17.833Z,45.55
2018-06-22T13:29:46.993Z,44.08
2018-06-22T13:32:16.153Z,50.38
2018-06-22T13:34:45.307Z,51.74
2018-06-22T13:37:14.464Z,51.81
2018-06-22T13:39:43.621Z,53.06
2018-06-22T13:42:12.769Z,54.51
2018-06-22T13:44:41.928Z,52.96
2018-06-22T13:47:10.793Z,54.27
2018-06-22T13:49:39.950Z,53.87
2018-06-22T13:52:09.277Z,54.44
2018-06-22T13:54:38.443Z,53.95
2018-06-22T13:57:07.671Z,53.93
2018-06-22T13:59:36.786Z,55.17
2018-06-22T14:02:05.932Z,54.53
2018-06-22T14:04:40.359Z,53.22
2018-06-22T14:07:09.525Z,52.99
2018-06-22T14:09:38.677Z,50.32
2018-06-22T14:12:07.867Z,48.90
2018-06-22T14:14:37.026Z,48.82
2018-06-22T14:17:06.223Z,46.96
2018-06-22T14:19:35.386Z,46.58
2018-06-22T14:22:04.568Z,47.04
2018-06-22T14:24:33.732Z,48.01
2018-06-22T14:27:02.888Z,45.49
2018-06-22T14:29:32.044Z,43.95
2018-06-22T14:32:01.217Z,45.76
2018-06-22T14:34:30.381Z,47.52
2018-06-22T14:36:59.545Z,45.66
2018-06-22T14:39:28.699Z,43.82
2018-06-22T14:41:57.846Z,44.55
2018-06-22T14:44:27.030Z,41.39
2018-06-22T14:46:56.700Z,41.61
2018-06-22T14:49:26.087Z,42.29
2018-06-22T14:52:00.712Z,47.31
2018-06-22T14:54:35.277Z,47.51
2018-06-22T14:57:09.728Z,48.27
2018-06-22T14:59:44.055Z,48.41
2018-06-22T15:02:18.487Z,45.33
2018-06-22T15:04:52.954Z,48.64
2018-06-22T15:07:27.188Z,44.68
2018-06-22T15:09:56.327Z,44.16
2018-06-22T15:12:25.471Z,44.03
2018-06-22T15:14:54.821Z,42.56
2018-06-22T15:17:23.986Z,47.79
2018-06-22T15:19:53.203Z,45.93
2018-06-22T15:22:22.390Z,47.53
2018-06-22T15:24:51.590Z,48.32
2018-06-22T15:27:20.732Z,48.48
2018-06-22T15:29:49.914Z,47.23
2018-06-22T15:32:19.069Z,49.65
2018-06-22T15:36:54.408Z,49.36
2018-06-22T15:39:28.892Z,47.65
2018-06-22T15:42:03.297Z,46.11
2018-06-22T15:44:37.594Z,47.50
2018-06-22T15:47:12.001Z,48.92
2018-06-22T15:49:46.344Z,47.91
2018-06-22T15:52:20.619Z,46.10
2018-06-22T15:54:54.992Z,48.79
2018-06-22T15:57:24.167Z,48.47
2018-06-22T15:59:53.339Z,49.28
2018-06-22T16:02:27.766Z,49.60
2018-06-22T16:04:57.049Z,49.59
2018-06-22T16:07:26.256Z,48.90
2018-06-22T16:10:01.179Z,49.28
2018-06-22T16:12:33.704Z,50.79
2018-06-22T16:15:07.981Z,52.07
2018-06-22T16:17:42.437Z,51.60
2018-06-22T16:20:16.772Z,51.47
2018-06-22T16:22:51.121Z,51.27
2018-06-22T16:25:25.473Z,51.96
2018-06-22T16:27:59.983Z,51.42
2018-06-22T16:30:29.452Z,48.63
2018-06-22T16:32:58.597Z,46.09
2018-06-22T16:35:27.841Z,49.51
2018-06-22T16:37:57.235Z,49.72
2018-06-22T16:40:26.922Z,47.89
2018-06-22T16:42:56.189Z,47.99
2018-06-22T16:45:32.663Z,50.64
2018-06-22T16:48:02.362Z,48.44
2018-06-22T16:50:31.608Z,46.04
2018-06-22T16:53:00.761Z,44.96
2018-06-22T16:55:29.991Z,43.21
2018-06-22T16:57:59.149Z,45.29
2018-06-22T17:00:28.317Z,45.55
2018-06-22T17:02:58.984Z,47.17
2018-06-22T17:05:28.623Z,49.52
2018-06-22T17:08:03.430Z,50.23
2018-06-22T17:10:38.247Z,49.91
2018-06-22T17:15:16.842Z,51.23
2018-06-22T17:17:51.647Z,53.08
2018-06-22T17:20:21.301Z,52.96
2018-06-22T17:22:50.906Z,52.42
2018-06-22T17:25:20.614Z,51.63
2018-06-22T17:27:50.220Z,52.02
2018-06-22T17:30:19.837Z,52.52
2018-06-22T17:32:49.435Z,52.54
2018-06-22T17:35:19.182Z,52.76
2018-06-22T17:37:48.736Z,47.06
2018-06-22T17:40:18.369Z,48.47
2018-06-22T17:42:47.941Z,51.29
2018-06-22T17:45:17.440Z,52.87
2018-06-22T17:47:46.897Z,51.19
2018-06-22T17:50:21.630Z,50.71
2018-06-22T17:52:51.093Z,52.81
2018-06-22T17:55:20.738Z,54.02
2018-06-22T17:57:50.195Z,50.61
2018-06-22T18:00:24.850Z,50.15
2018-06-22T18:02:59.581Z,53.42
2018-06-22T18:05:34.126Z,54.76
2018-06-22T18:08:03.832Z,54.03
2018-06-22T18:10:38.536Z,54.04
2018-06-22T18:13:08.138Z,55.53
2018-06-22T18:15:37.741Z,55.37
2018-06-22T18:18:07.400Z,56.43
2018-06-22T18:20:36.990Z,56.93
2018-06-22T18:23:06.831Z,56.72
2018-06-22T18:25:36.505Z,57.51
2018-06-22T18:28:06.551Z,57.72
2018-06-22T18:30:36.434Z,58.01
2018-06-22T18:33:06.183Z,58.50
2018-06-22T18:35:37.329Z,58.36
2018-06-22T18:38:07.534Z,58.69
2018-06-22T18:40:37.297Z,59.34
2018-06-22T18:43:07.037Z,58.95
2018-06-22T18:45:36.824Z,58.77
2018-06-22T18:48:06.692Z,58.25
2018-06-22T18:50:36.353Z,58.16
2018-06-22T18:53:11.189Z,58.35
2018-06-22T18:55:46.165Z,58.46
2018-06-22T18:58:21.179Z,58.45
2018-06-22T19:00:55.973Z,58.51
2018-06-22T19:03:30.827Z,58.44
2018-06-22T19:06:00.546Z,58.62
2018-06-22T19:08:30.406Z,58.93
2018-06-22T19:11:00.369Z,58.54
2018-06-22T19:13:30.404Z,59.34
2018-06-22T19:15:59.982Z,59.20
2018-06-22T19:18:29.674Z,60.30
2018-06-22T19:20:59.147Z,59.99
2018-06-22T19:23:28.686Z,60.22
2018-06-22T19:25:58.382Z,60.06
2018-06-22T19:28:28.091Z,61.02
2018-06-22T19:30:57.634Z,61.30
2018-06-22T19:33:27.152Z,61.61
2018-06-22T19:35:56.958Z,61.57
2018-06-22T19:38:26.609Z,61.79
2018-06-22T19:40:56.116Z,62.15
2018-06-22T19:43:30.632Z,61.79
2018-06-22T19:46:05.366Z,61.77
2018-06-22T19:48:39.704Z,61.78
2018-06-22T19:51:14.038Z,62.15
2018-06-22T19:53:45.947Z,61.99
2018-06-22T19:56:15.121Z,61.94
2018-06-22T19:58:44.268Z,61.81
2018-06-22T20:01:13.441Z,62.06
2018-06-22T20:03:42.603Z,62.02
2018-06-22T20:06:11.769Z,62.13
2018-06-22T20:08:40.940Z,61.77
2018-06-22T20:11:10.803Z,62.20
2018-06-22T20:13:41.840Z,62.13
2018-06-22T20:16:11.022Z,62.04
2018-06-22T20:18:40.215Z,62.97
2018-06-22T20:21:09.993Z,62.54
2018-06-22T20:23:39.206Z,62.37
2018-06-22T20:26:08.365Z,62.97
2018-06-22T20:28:37.640Z,63.51
2018-06-22T20:31:06.787Z,64.04
2018-06-22T20:33:36.032Z,64.70
2018-06-22T20:36:10.681Z,64.50
2018-06-22T20:38:45.132Z,64.85
2018-06-22T20:41:19.537Z,65.34
2018-06-22T20:46:00.927Z,65.08
2018-06-22T20:48:35.427Z,65.95
2018-06-22T20:51:04.645Z,65.46
2018-06-22T20:53:33.887Z,65.50
2018-06-22T20:56:03.261Z,65.84
2018-06-22T20:58:32.490Z,64.90
2018-06-22T21:01:01.714Z,65.19
2018-06-22T21:03:31.020Z,65.52
2018-06-22T21:06:00.175Z,65.70
2018-06-22T21:08:29.350Z,65.79
2018-06-22T21:10:58.518Z,65.61
2018-06-22T21:13:27.760Z,66.49
2018-06-22T21:15:56.874Z,66.52
2018-06-22T21:18:26.213Z,66.81
2018-06-22T21:21:00.499Z,66.78
2018-06-22T21:23:29.669Z,66.75
2018-06-22T21:25:58.946Z,66.75
2018-06-22T21:28:33.425Z,66.52
2018-06-22T21:31:07.842Z,66.84
2018-06-22T21:33:42.144Z,67.10
2018-06-22T21:36:16.456Z,67.18
2018-06-22T21:38:50.763Z,67.71
2018-06-22T21:41:19.915Z,67.94
2018-06-22T21:43:49.132Z,68.12
2018-06-22T21:46:18.338Z,68.43
2018-06-22T21:48:47.502Z,68.21
2018-06-22T21:51:16.653Z,68.61
2018-06-22T21:53:45.832Z,68.58
2018-06-22T21:56:14.999Z,68.73
2018-06-22T21:58:44.435Z,68.78
2018-06-22T22:01:13.631Z,68.25
2018-06-22T22:03:42.805Z,68.53
2018-06-22T22:06:12.016Z,69.17
2018-06-22T22:08:41.198Z,69.69
2018-06-22T22:11:11.120Z,69.95
2018-06-22T22:13:40.992Z,69.83
2018-06-22T22:16:10.488Z,69.36
2018-06-22T22:18:39.684Z,69.94
2018-06-22T22:21:08.847Z,69.68
2018-06-22T22:23:38.172Z,69.58
2018-06-22T22:26:07.342Z,69.83
2018-06-22T22:28:36.558Z,69.75
2018-06-22T22:31:05.757Z,69.43
2018-06-22T22:33:34.932Z,69.31
2018-06-22T22:36:04.146Z,69.76
2018-06-22T22:38:33.326Z,68.91
2018-06-22T22:41:02.520Z,69.51
2018-06-22T22:43:31.692Z,69.79
2018-06-22T22:46:00.847Z,69.87
2018-06-22T22:48:30.108Z,69.98
2018-06-22T22:50:59.292Z,70.30
2018-06-22T22:53:28.427Z,70.12
2018-06-22T22:55:57.591Z,70.37
2018-06-22T22:58:26.819Z,70.48
2018-06-22T23:00:55.991Z,70.50
2018-06-22T23:03:25.149Z,70.96
2018-06-22T23:05:54.353Z,71.37
2018-06-22T23:08:23.523Z,71.21
2018-06-22T23:10:52.697Z,71.36
2018-06-22T23:13:21.870Z,71.28
2018-06-22T23:15:51.093Z,71.05
2018-06-22T23:18:20.249Z,70.91
2018-06-22T23:20:49.461Z,70.94
2018-06-22T23:23:35.416Z,70.57
2018-06-22T23:26:05.004Z,70.56
2018-06-22T23:28:34.185Z,69.78
2018-06-22T23:31:04.434Z,69.97
2018-06-22T23:33:33.928Z,69.93
2018-06-22T23:36:03.912Z,70.35
2018-06-22T23:38:33.564Z,70.63
2018-06-22T23:41:02.739Z,70.29
2018-06-22T23:43:34.059Z,70.25
2018-06-22T23:46:03.281Z,70.83
2018-06-22T23:48:32.483Z,69.68
2018-06-22T23:51:01.653Z,69.72
2018-06-22T23:53:30.823Z,70.22
2018-06-22T23:55:59.984Z,70.49
2018-06-22T23:58:29.150Z,70.94
